sensor_id;sensor_type;location;lat;lon;timestamp;P1;durP1;ratioP1;P2;durP2;ratioP2
4078;SDS011;2054;47.858;11.156;2023-05-16T02:46:22;4.70;;;3.40;;
4078;SDS011;2054;47.858;11.156;2023-05-16T02:48:49;4.88;;;3.63;;
4078;SDS011;2054;47.858;11.156;2023-05-16T02:51:17;4.57;;;3.60;;
4078;SDS011;2054;47.858;11.156;2023-05-16T02:53:45;5.35;;;3.85;;
4078;SDS011;2054;47.858;11.156;2023-05-16T02:56:16;6.00;;;3.90;;
4078;SDS011;2054;47.858;11.156;2023-05-16T02:58:45;5.70;;;4.93;;
4078;SDS011;2054;47.858;11.156;2023-05-16T03:01:13;5.13;;;3.80;;
4078;SDS011;2054;47.858;11.156;2023-05-16T03:03:42;5.82;;;3.45;;
4078;SDS011;2054;47.858;11.156;2023-05-16T03:06:10;6.30;;;3.90;;
4078;SDS011;2054;47.858;11.156;2023-05-16T03:08:37;6.60;;;3.92;;
4078;SDS011;2054;47.858;11.156;2023-05-16T03:11:04;5.68;;;3.97;;
4078;SDS011;2054;47.858;11.156;2023-05-16T03:13:32;5.13;;;3.95;;
4078;SDS011;2054;47.858;11.156;2023-05-16T03:15:59;4.90;;;4.07;;
4078;SDS011;2054;47.858;11.156;2023-05-16T03:18:27;8.90;;;4.15;;
4078;SDS011;2054;47.858;11.156;2023-05-16T03:20:56;5.93;;;4.13;;
4078;SDS011;2054;47.858;11.156;2023-05-16T03:23:23;5.07;;;4.18;;
4078;SDS011;2054;47.858;11.156;2023-05-16T03:25:51;5.53;;;3.90;;
4078;SDS011;2054;47.858;11.156;2023-05-16T03:28:18;4.40;;;3.22;;
4078;SDS011;2054;47.858;11.156;2023-05-16T03:30:46;3.67;;;2.97;;
4078;SDS011;2054;47.858;11.156;2023-05-16T03:33:13;3.83;;;2.95;;
4078;SDS011;2054;47.858;11.156;2023-05-16T03:35:40;3.03;;;2.70;;
4078;SDS011;2054;47.858;11.156;2023-05-16T03:38:10;4.43;;;3.20;;
4078;SDS011;2054;47.858;11.156;2023-05-16T03:40:37;4.93;;;3.53;;
4078;SDS011;2054;47.858;11.156;2023-05-16T03:43:04;4.88;;;3.30;;
4078;SDS011;2054;47.858;11.156;2023-05-16T03:45:32;4.03;;;3.47;;
4078;SDS011;2054;47.858;11.156;2023-05-16T03:47:59;4.82;;;3.35;;
4078;SDS011;2054;47.858;11.156;2023-05-16T03:50:26;3.95;;;3.40;;
4078;SDS011;2054;47.858;11.156;2023-05-16T03:52:53;5.60;;;3.45;;
4078;SDS011;2054;47.858;11.156;2023-05-16T03:55:22;5.38;;;3.42;;
4078;SDS011;2054;47.858;11.156;2023-05-16T03:57:49;6.60;;;4.13;;
4078;SDS011;2054;47.858;11.156;2023-05-16T04:00:17;7.68;;;4.78;;
4078;SDS011;2054;47.858;11.156;2023-05-16T04:02:44;6.35;;;4.35;;
4078;SDS011;2054;47.858;11.156;2023-05-16T04:05:11;7.40;;;4.43;;
4078;SDS011;2054;47.858;11.156;2023-05-16T04:07:39;4.90;;;4.13;;
4078;SDS011;2054;47.858;11.156;2023-05-16T04:10:08;6.43;;;4.60;;
4078;SDS011;2054;47.858;11.156;2023-05-16T04:12:37;4.85;;;4.13;;
4078;SDS011;2054;47.858;11.156;2023-05-16T04:15:06;7.75;;;4.85;;
4078;SDS011;2054;47.858;11.156;2023-05-16T04:17:33;7.70;;;4.40;;
4078;SDS011;2054;47.858;11.156;2023-05-16T04:20:01;5.40;;;4.60;;
4078;SDS011;2054;47.858;11.156;2023-05-16T04:22:28;6.30;;;4.13;;
4078;SDS011;2054;47.858;11.156;2023-05-16T04:24:56;6.80;;;4.65;;
4078;SDS011;2054;47.858;11.156;2023-05-16T04:27:23;7.63;;;4.72;;
4078;SDS011;2054;47.858;11.156;2023-05-16T04:29:52;8.57;;;4.90;;
4078;SDS011;2054;47.858;11.156;2023-05-16T04:32:19;8.98;;;4.78;;
4078;SDS011;2054;47.858;11.156;2023-05-16T04:34:48;6.93;;;4.70;;
4078;SDS011;2054;47.858;11.156;2023-05-16T04:37:17;6.03;;;4.75;;
4078;SDS011;2054;47.858;11.156;2023-05-16T04:39:44;5.57;;;4.30;;
4078;SDS011;2054;47.858;11.156;2023-05-16T04:42:12;5.07;;;4.57;;
4078;SDS011;2054;47.858;11.156;2023-05-16T04:44:40;6.22;;;4.95;;
4078;SDS011;2054;47.858;11.156;2023-05-16T04:47:13;7.13;;;4.68;;
4078;SDS011;2054;47.858;11.156;2023-05-16T04:49:40;6.07;;;4.68;;
4078;SDS011;2054;47.858;11.156;2023-05-16T04:52:07;5.15;;;4.28;;
4078;SDS011;2054;47.858;11.156;2023-05-16T04:54:36;6.88;;;4.20;;
4078;SDS011;2054;47.858;11.156;2023-05-16T04:57:04;5.60;;;4.60;;
4078;SDS011;2054;47.858;11.156;2023-05-16T04:59:31;6.90;;;4.30;;
4078;SDS011;2054;47.858;11.156;2023-05-16T05:01:59;6.15;;;4.80;;
4078;SDS011;2054;47.858;11.156;2023-05-16T05:04:27;7.22;;;5.15;;
4078;SDS011;2054;47.858;11.156;2023-05-16T05:06:55;7.55;;;6.20;;
4078;SDS011;2054;47.858;11.156;2023-05-16T05:09:22;8.23;;;6.30;;
4078;SDS011;2054;47.858;11.156;2023-05-16T05:11:50;6.88;;;5.53;;
4078;SDS011;2054;47.858;11.156;2023-05-16T05:14:17;10.80;;;6.30;;
4078;SDS011;2054;47.858;11.156;2023-05-16T05:16:44;8.32;;;5.05;;
4078;SDS011;2054;47.858;11.156;2023-05-16T05:19:11;7.25;;;5.40;;
4078;SDS011;2054;47.858;11.156;2023-05-16T05:21:40;7.40;;;5.40;;
4078;SDS011;2054;47.858;11.156;2023-05-16T05:24:07;7.20;;;5.38;;
4078;SDS011;2054;47.858;11.156;2023-05-16T05:26:35;8.02;;;5.13;;
4078;SDS011;2054;47.858;11.156;2023-05-16T05:29:02;28.20;;;25.88;;
4078;SDS011;2054;47.858;11.156;2023-05-16T05:31:30;6.93;;;6.05;;
4078;SDS011;2054;47.858;11.156;2023-05-16T05:33:57;7.13;;;5.35;;
4078;SDS011;2054;47.858;11.156;2023-05-16T05:36:25;5.40;;;4.53;;
4078;SDS011;2054;47.858;11.156;2023-05-16T05:38:54;7.88;;;5.32;;
4078;SDS011;2054;47.858;11.156;2023-05-16T05:41:21;5.95;;;4.85;;
4078;SDS011;2054;47.858;11.156;2023-05-16T05:43:48;6.90;;;5.40;;
4078;SDS011;2054;47.858;11.156;2023-05-16T05:46:15;11.02;;;5.40;;
4078;SDS011;2054;47.858;11.156;2023-05-16T05:48:43;6.82;;;5.10;;
4078;SDS011;2054;47.858;11.156;2023-05-16T05:51:10;6.47;;;5.15;;
4078;SDS011;2054;47.858;11.156;2023-05-16T05:53:38;7.82;;;5.43;;
4078;SDS011;2054;47.858;11.156;2023-05-16T05:56:08;9.13;;;5.65;;
4078;SDS011;2054;47.858;11.156;2023-05-16T05:58:35;9.07;;;5.13;;
4078;SDS011;2054;47.858;11.156;2023-05-16T06:01:03;7.18;;;4.97;;
4078;SDS011;2054;47.858;11.156;2023-05-16T06:03:30;8.25;;;5.13;;
4078;SDS011;2054;47.858;11.156;2023-05-16T06:05:57;9.55;;;5.78;;
4078;SDS011;2054;47.858;11.156;2023-05-16T06:08:25;6.40;;;5.38;;
4078;SDS011;2054;47.858;11.156;2023-05-16T06:10:52;7.10;;;5.60;;
4078;SDS011;2054;47.858;11.156;2023-05-16T06:13:21;6.57;;;5.40;;
4078;SDS011;2054;47.858;11.156;2023-05-16T06:15:49;6.45;;;5.80;;
4078;SDS011;2054;47.858;11.156;2023-05-16T06:18:16;7.15;;;5.85;;
4078;SDS011;2054;47.858;11.156;2023-05-16T06:20:43;8.75;;;5.60;;
4078;SDS011;2054;47.858;11.156;2023-05-16T06:23:11;8.60;;;5.15;;
4078;SDS011;2054;47.858;11.156;2023-05-16T06:25:38;6.85;;;5.30;;
4078;SDS011;2054;47.858;11.156;2023-05-16T06:28:05;7.25;;;5.78;;
4078;SDS011;2054;47.858;11.156;2023-05-16T06:30:34;6.40;;;5.80;;
4078;SDS011;2054;47.858;11.156;2023-05-16T06:33:01;6.45;;;5.60;;
4078;SDS011;2054;47.858;11.156;2023-05-16T06:35:29;7.50;;;5.88;;
4078;SDS011;2054;47.858;11.156;2023-05-16T06:37:56;7.05;;;5.80;;
4078;SDS011;2054;47.858;11.156;2023-05-16T06:40:23;7.90;;;6.13;;
4078;SDS011;2054;47.858;11.156;2023-05-16T06:42:51;9.07;;;6.57;;
4078;SDS011;2054;47.858;11.156;2023-05-16T06:45:18;7.72;;;6.53;;
4078;SDS011;2054;47.858;11.156;2023-05-16T06:47:47;9.60;;;7.10;;
4078;SDS011;2054;47.858;11.156;2023-05-16T06:50:15;10.88;;;7.90;;
4078;SDS011;2054;47.858;11.156;2023-05-16T06:52:42;9.10;;;7.10;;
4078;SDS011;2054;47.858;11.156;2023-05-16T06:55:09;8.75;;;6.45;;
4078;SDS011;2054;47.858;11.156;2023-05-16T06:57:37;10.85;;;6.60;;
4078;SDS011;2054;47.858;11.156;2023-05-16T07:00:05;9.18;;;6.65;;
4078;SDS011;2054;47.858;11.156;2023-05-16T07:02:33;8.98;;;7.22;;
4078;SDS011;2054;47.858;11.156;2023-05-16T07:05:02;10.25;;;7.15;;
4078;SDS011;2054;47.858;11.156;2023-05-16T07:07:29;9.05;;;7.65;;
4078;SDS011;2054;47.858;11.156;2023-05-16T07:09:56;11.05;;;8.10;;
4078;SDS011;2054;47.858;11.156;2023-05-16T07:12:24;9.40;;;7.03;;
4078;SDS011;2054;47.858;11.156;2023-05-16T07:14:51;9.45;;;7.30;;
4078;SDS011;2054;47.858;11.156;2023-05-16T07:17:19;10.02;;;7.78;;
4078;SDS011;2054;47.858;11.156;2023-05-16T07:19:46;9.63;;;7.43;;
4078;SDS011;2054;47.858;11.156;2023-05-16T07:22:15;9.95;;;7.40;;
4078;SDS011;2054;47.858;11.156;2023-05-16T07:24:42;12.85;;;7.85;;
4078;SDS011;2054;47.858;11.156;2023-05-16T07:27:10;9.57;;;7.63;;
4078;SDS011;2054;47.858;11.156;2023-05-16T07:29:37;9.82;;;7.95;;
4078;SDS011;2054;47.858;11.156;2023-05-16T07:32:05;10.43;;;8.13;;
4078;SDS011;2054;47.858;11.156;2023-05-16T07:34:32;10.05;;;7.38;;
4078;SDS011;2054;47.858;11.156;2023-05-16T07:37:00;12.68;;;8.15;;
4078;SDS011;2054;47.858;11.156;2023-05-16T07:39:29;12.02;;;8.35;;
4078;SDS011;2054;47.858;11.156;2023-05-16T07:41:56;10.52;;;8.15;;
4078;SDS011;2054;47.858;11.156;2023-05-16T07:44:23;11.40;;;8.43;;
4078;SDS011;2054;47.858;11.156;2023-05-16T07:46:50;9.75;;;7.95;;
4078;SDS011;2054;47.858;11.156;2023-05-16T07:49:18;11.48;;;8.57;;
4078;SDS011;2054;47.858;11.156;2023-05-16T07:51:45;11.35;;;8.88;;
4078;SDS011;2054;47.858;11.156;2023-05-16T07:54:12;12.15;;;9.02;;
4078;SDS011;2054;47.858;11.156;2023-05-16T07:56:41;11.43;;;8.85;;
4078;SDS011;2054;47.858;11.156;2023-05-16T07:59:08;11.43;;;8.57;;
4078;SDS011;2054;47.858;11.156;2023-05-16T08:01:36;11.90;;;8.57;;
4078;SDS011;2054;47.858;11.156;2023-05-16T08:04:03;11.98;;;8.40;;
4078;SDS011;2054;47.858;11.156;2023-05-16T08:06:31;10.50;;;8.00;;
4078;SDS011;2054;47.858;11.156;2023-05-16T08:08:58;14.43;;;9.23;;
4078;SDS011;2054;47.858;11.156;2023-05-16T08:11:25;11.50;;;8.65;;
4078;SDS011;2054;47.858;11.156;2023-05-16T08:13:54;12.35;;;10.18;;
4078;SDS011;2054;47.858;11.156;2023-05-16T08:16:21;13.02;;;9.25;;
4078;SDS011;2054;47.858;11.156;2023-05-16T08:18:49;11.07;;;8.07;;
4078;SDS011;2054;47.858;11.156;2023-05-16T08:21:16;11.60;;;9.13;;
4078;SDS011;2054;47.858;11.156;2023-05-16T08:23:43;14.45;;;10.07;;
4078;SDS011;2054;47.858;11.156;2023-05-16T08:26:11;11.25;;;9.30;;
4078;SDS011;2054;47.858;11.156;2023-05-16T08:28:38;13.10;;;9.60;;
4078;SDS011;2054;47.858;11.156;2023-05-16T08:31:07;13.90;;;9.68;;
4078;SDS011;2054;47.858;11.156;2023-05-16T08:33:34;12.05;;;9.30;;
4078;SDS011;2054;47.858;11.156;2023-05-16T08:36:02;12.73;;;9.25;;
4078;SDS011;2054;47.858;11.156;2023-05-16T08:38:30;13.40;;;10.00;;
4078;SDS011;2054;47.858;11.156;2023-05-16T08:40:57;12.27;;;10.25;;
4078;SDS011;2054;47.858;11.156;2023-05-16T08:43:24;15.38;;;10.82;;
4078;SDS011;2054;47.858;11.156;2023-05-16T08:45:52;12.85;;;9.75;;
4078;SDS011;2054;47.858;11.156;2023-05-16T08:48:21;14.57;;;10.15;;
4078;SDS011;2054;47.858;11.156;2023-05-16T08:50:49;15.32;;;11.32;;
4078;SDS011;2054;47.858;11.156;2023-05-16T08:53:19;16.90;;;11.80;;
4078;SDS011;2054;47.858;11.156;2023-05-16T08:55:47;17.30;;;12.02;;
4078;SDS011;2054;47.858;11.156;2023-05-16T08:58:15;18.83;;;12.93;;
4078;SDS011;2054;47.858;11.156;2023-05-16T09:00:43;16.33;;;11.50;;
4078;SDS011;2054;47.858;11.156;2023-05-16T09:03:11;14.20;;;11.30;;
4078;SDS011;2054;47.858;11.156;2023-05-16T09:05:40;14.27;;;10.82;;
4078;SDS011;2054;47.858;11.156;2023-05-16T09:08:07;14.05;;;11.25;;
4078;SDS011;2054;47.858;11.156;2023-05-16T09:10:35;16.30;;;11.40;;
4078;SDS011;2054;47.858;11.156;2023-05-16T09:13:02;18.90;;;12.90;;
4078;SDS011;2054;47.858;11.156;2023-05-16T09:15:30;14.77;;;10.80;;
4078;SDS011;2054;47.858;11.156;2023-05-16T09:17:59;15.27;;;12.25;;
4078;SDS011;2054;47.858;11.156;2023-05-16T09:20:27;16.38;;;12.57;;
4078;SDS011;2054;47.858;11.156;2023-05-16T09:22:57;18.50;;;13.45;;
4078;SDS011;2054;47.858;11.156;2023-05-16T09:25:25;16.48;;;12.77;;
4078;SDS011;2054;47.858;11.156;2023-05-16T09:27:52;19.25;;;13.10;;
4078;SDS011;2054;47.858;11.156;2023-05-16T09:30:20;19.63;;;13.63;;
4078;SDS011;2054;47.858;11.156;2023-05-16T09:32:49;20.17;;;14.48;;
4078;SDS011;2054;47.858;11.156;2023-05-16T09:35:17;19.15;;;14.52;;
4078;SDS011;2054;47.858;11.156;2023-05-16T09:37:45;20.10;;;14.93;;
4078;SDS011;2054;47.858;11.156;2023-05-16T09:40:14;20.08;;;15.00;;
4078;SDS011;2054;47.858;11.156;2023-05-16T09:42:42;18.63;;;14.48;;
4078;SDS011;2054;47.858;11.156;2023-05-16T09:45:11;22.98;;;15.45;;
4078;SDS011;2054;47.858;11.156;2023-05-16T09:47:39;21.10;;;15.88;;
4078;SDS011;2054;47.858;11.156;2023-05-16T09:50:10;23.15;;;16.02;;
4078;SDS011;2054;47.858;11.156;2023-05-16T09:52:40;22.35;;;16.75;;
4078;SDS011;2054;47.858;11.156;2023-05-16T09:55:07;20.08;;;15.65;;
4078;SDS011;2054;47.858;11.156;2023-05-16T09:57:37;22.30;;;15.52;;
4078;SDS011;2054;47.858;11.156;2023-05-16T10:00:05;20.17;;;15.40;;
4078;SDS011;2054;47.858;11.156;2023-05-16T10:02:34;24.30;;;16.05;;
4078;SDS011;2054;47.858;11.156;2023-05-16T10:05:02;23.15;;;15.63;;
4078;SDS011;2054;47.858;11.156;2023-05-16T10:07:29;22.85;;;16.42;;
4078;SDS011;2054;47.858;11.156;2023-05-16T10:09:58;21.80;;;17.17;;
4078;SDS011;2054;47.858;11.156;2023-05-16T10:12:28;25.30;;;17.67;;
4078;SDS011;2054;47.858;11.156;2023-05-16T10:14:58;25.33;;;17.48;;
4078;SDS011;2054;47.858;11.156;2023-05-16T10:17:26;25.80;;;18.05;;
4078;SDS011;2054;47.858;11.156;2023-05-16T10:19:56;25.17;;;18.55;;
4078;SDS011;2054;47.858;11.156;2023-05-16T10:22:23;24.23;;;16.83;;
4078;SDS011;2054;47.858;11.156;2023-05-16T10:24:53;23.45;;;17.98;;
4078;SDS011;2054;47.858;11.156;2023-05-16T10:27:24;24.67;;;17.55;;
4078;SDS011;2054;47.858;11.156;2023-05-16T10:29:51;25.23;;;19.15;;
4078;SDS011;2054;47.858;11.156;2023-05-16T10:32:20;25.02;;;18.00;;
4078;SDS011;2054;47.858;11.156;2023-05-16T10:34:49;23.75;;;17.48;;
4078;SDS011;2054;47.858;11.156;2023-05-16T10:37:17;22.67;;;17.02;;
4078;SDS011;2054;47.858;11.156;2023-05-16T10:39:44;21.40;;;16.98;;
4078;SDS011;2054;47.858;11.156;2023-05-16T10:42:12;24.90;;;18.15;;
4078;SDS011;2054;47.858;11.156;2023-05-16T10:44:42;22.70;;;16.67;;
4078;SDS011;2054;47.858;11.156;2023-05-16T10:47:09;23.15;;;17.67;;
4078;SDS011;2054;47.858;11.156;2023-05-16T10:49:40;24.20;;;18.08;;
4078;SDS011;2054;47.858;11.156;2023-05-16T10:52:08;26.52;;;18.77;;
4078;SDS011;2054;47.858;11.156;2023-05-16T10:54:36;24.70;;;18.90;;
4078;SDS011;2054;47.858;11.156;2023-05-16T10:57:05;24.80;;;19.08;;
4078;SDS011;2054;47.858;11.156;2023-05-16T10:59:39;23.33;;;18.63;;
4078;SDS011;2054;47.858;11.156;2023-05-16T11:02:20;25.95;;;18.88;;
4078;SDS011;2054;47.858;11.156;2023-05-16T11:04:49;23.83;;;18.73;;
4078;SDS011;2054;47.858;11.156;2023-05-16T11:07:17;25.75;;;19.27;;
4078;SDS011;2054;47.858;11.156;2023-05-16T11:12:34;21.63;;;17.33;;
4078;SDS011;2054;47.858;11.156;2023-05-16T11:15:06;23.52;;;17.75;;
4078;SDS011;2054;47.858;11.156;2023-05-16T11:17:43;22.30;;;17.45;;
4078;SDS011;2054;47.858;11.156;2023-05-16T11:20:23;23.73;;;18.48;;
4078;SDS011;2054;47.858;11.156;2023-05-16T11:22:51;24.92;;;19.25;;
4078;SDS011;2054;47.858;11.156;2023-05-16T11:25:38;24.98;;;19.20;;
4078;SDS011;2054;47.858;11.156;2023-05-16T11:28:06;25.42;;;18.55;;
4078;SDS011;2054;47.858;11.156;2023-05-16T11:30:34;25.65;;;19.27;;
4078;SDS011;2054;47.858;11.156;2023-05-16T11:33:01;25.02;;;19.10;;
4078;SDS011;2054;47.858;11.156;2023-05-16T11:35:30;24.00;;;17.95;;
4078;SDS011;2054;47.858;11.156;2023-05-16T11:37:57;26.08;;;19.35;;
4078;SDS011;2054;47.858;11.156;2023-05-16T11:40:25;23.45;;;18.52;;
4078;SDS011;2054;47.858;11.156;2023-05-16T11:42:53;22.55;;;16.73;;
4078;SDS011;2054;47.858;11.156;2023-05-16T11:45:20;21.75;;;18.15;;
4078;SDS011;2054;47.858;11.156;2023-05-16T11:47:49;23.48;;;18.25;;
4078;SDS011;2054;47.858;11.156;2023-05-16T11:50:17;21.52;;;17.45;;
4078;SDS011;2054;47.858;11.156;2023-05-16T11:52:47;21.13;;;16.90;;
4078;SDS011;2054;47.858;11.156;2023-05-16T11:55:18;21.08;;;17.30;;
4078;SDS011;2054;47.858;11.156;2023-05-16T11:57:47;21.38;;;16.45;;
4078;SDS011;2054;47.858;11.156;2023-05-16T12:00:16;19.13;;;15.65;;
4078;SDS011;2054;47.858;11.156;2023-05-16T12:02:44;17.90;;;14.45;;
4078;SDS011;2054;47.858;11.156;2023-05-16T12:05:12;17.65;;;15.18;;
4078;SDS011;2054;47.858;11.156;2023-05-16T12:07:39;17.58;;;14.55;;
4078;SDS011;2054;47.858;11.156;2023-05-16T12:10:10;19.30;;;14.68;;
4078;SDS011;2054;47.858;11.156;2023-05-16T12:12:38;18.02;;;14.73;;
4078;SDS011;2054;47.858;11.156;2023-05-16T12:15:06;17.67;;;14.40;;
4078;SDS011;2054;47.858;11.156;2023-05-16T12:17:35;16.65;;;14.20;;
4078;SDS011;2054;47.858;11.156;2023-05-16T12:20:03;16.63;;;14.00;;
4078;SDS011;2054;47.858;11.156;2023-05-16T12:22:30;15.25;;;13.63;;
4078;SDS011;2054;47.858;11.156;2023-05-16T12:24:58;15.50;;;13.30;;
4078;SDS011;2054;47.858;11.156;2023-05-16T12:27:27;16.40;;;14.05;;
4078;SDS011;2054;47.858;11.156;2023-05-16T12:29:56;16.10;;;14.00;;
4078;SDS011;2054;47.858;11.156;2023-05-16T12:32:24;17.50;;;13.82;;
4078;SDS011;2054;47.858;11.156;2023-05-16T12:34:52;19.05;;;14.77;;
4078;SDS011;2054;47.858;11.156;2023-05-16T12:37:20;18.67;;;15.98;;
4078;SDS011;2054;47.858;11.156;2023-05-16T12:39:47;16.83;;;14.77;;
4078;SDS011;2054;47.858;11.156;2023-05-16T12:42:15;17.98;;;15.68;;
4078;SDS011;2054;47.858;11.156;2023-05-16T12:44:45;19.58;;;16.80;;
4078;SDS011;2054;47.858;11.156;2023-05-16T12:47:12;19.77;;;15.45;;
4078;SDS011;2054;47.858;11.156;2023-05-16T12:49:44;18.48;;;15.57;;
4078;SDS011;2054;47.858;11.156;2023-05-16T12:52:16;19.10;;;16.30;;
4078;SDS011;2054;47.858;11.156;2023-05-16T12:54:44;20.42;;;16.20;;
4078;SDS011;2054;47.858;11.156;2023-05-16T12:57:12;21.77;;;17.23;;
4078;SDS011;2054;47.858;11.156;2023-05-16T12:59:39;25.15;;;17.55;;
4078;SDS011;2054;47.858;11.156;2023-05-16T13:02:08;25.63;;;18.63;;
4078;SDS011;2054;47.858;11.156;2023-05-16T13:04:36;21.35;;;17.23;;
4078;SDS011;2054;47.858;11.156;2023-05-16T13:07:03;22.17;;;17.63;;
4078;SDS011;2054;47.858;11.156;2023-05-16T13:09:30;24.23;;;18.67;;
4078;SDS011;2054;47.858;11.156;2023-05-16T13:11:58;23.70;;;18.67;;
4078;SDS011;2054;47.858;11.156;2023-05-16T13:14:25;22.42;;;18.02;;
4078;SDS011;2054;47.858;11.156;2023-05-16T13:16:55;22.17;;;17.23;;
4078;SDS011;2054;47.858;11.156;2023-05-16T13:19:23;20.17;;;16.80;;
4078;SDS011;2054;47.858;11.156;2023-05-16T13:21:51;22.92;;;17.27;;
4078;SDS011;2054;47.858;11.156;2023-05-16T13:24:18;23.13;;;17.95;;
4078;SDS011;2054;47.858;11.156;2023-05-16T13:26:45;23.98;;;18.13;;
4078;SDS011;2054;47.858;11.156;2023-05-16T13:29:13;22.73;;;17.67;;
4078;SDS011;2054;47.858;11.156;2023-05-16T13:31:40;21.70;;;17.48;;
4078;SDS011;2054;47.858;11.156;2023-05-16T13:34:08;21.73;;;16.95;;
4078;SDS011;2054;47.858;11.156;2023-05-16T13:36:36;25.08;;;18.02;;
4078;SDS011;2054;47.858;11.156;2023-05-16T13:39:03;20.88;;;16.77;;
4078;SDS011;2054;47.858;11.156;2023-05-16T13:41:31;21.42;;;16.65;;
4078;SDS011;2054;47.858;11.156;2023-05-16T13:44:01;23.45;;;16.25;;
4078;SDS011;2054;47.858;11.156;2023-05-16T13:46:29;19.67;;;16.13;;
4078;SDS011;2054;47.858;11.156;2023-05-16T13:48:56;24.00;;;16.60;;
4078;SDS011;2054;47.858;11.156;2023-05-16T13:51:24;18.95;;;15.75;;
4078;SDS011;2054;47.858;11.156;2023-05-16T13:53:54;18.98;;;14.85;;
4078;SDS011;2054;47.858;11.156;2023-05-16T13:56:21;20.38;;;15.82;;
4078;SDS011;2054;47.858;11.156;2023-05-16T13:58:49;18.00;;;15.77;;
4078;SDS011;2054;47.858;11.156;2023-05-16T14:01:16;19.33;;;14.48;;
4078;SDS011;2054;47.858;11.156;2023-05-16T14:03:43;19.40;;;14.68;;
4078;SDS011;2054;47.858;11.156;2023-05-16T14:06:11;17.80;;;14.55;;
4078;SDS011;2054;47.858;11.156;2023-05-16T14:08:39;17.98;;;14.32;;
4078;SDS011;2054;47.858;11.156;2023-05-16T14:11:08;18.20;;;14.15;;
4078;SDS011;2054;47.858;11.156;2023-05-16T14:13:35;16.70;;;13.55;;
4078;SDS011;2054;47.858;11.156;2023-05-16T14:16:04;19.80;;;15.25;;
4078;SDS011;2054;47.858;11.156;2023-05-16T14:18:31;17.92;;;14.13;;
4078;SDS011;2054;47.858;11.156;2023-05-16T14:20:59;17.83;;;14.57;;
4078;SDS011;2054;47.858;11.156;2023-05-16T14:23:26;25.60;;;16.65;;
4078;SDS011;2054;47.858;11.156;2023-05-16T14:25:53;21.33;;;16.52;;
4078;SDS011;2054;47.858;11.156;2023-05-16T14:28:22;26.65;;;20.52;;
4078;SDS011;2054;47.858;11.156;2023-05-16T14:30:49;25.10;;;18.52;;
4078;SDS011;2054;47.858;11.156;2023-05-16T14:33:17;25.35;;;18.80;;
4078;SDS011;2054;47.858;11.156;2023-05-16T14:35:44;22.83;;;16.95;;
4078;SDS011;2054;47.858;11.156;2023-05-16T14:38:13;19.20;;;14.90;;
4078;SDS011;2054;47.858;11.156;2023-05-16T14:40:40;18.48;;;15.07;;
4078;SDS011;2054;47.858;11.156;2023-05-16T14:43:08;15.32;;;11.85;;
4078;SDS011;2054;47.858;11.156;2023-05-16T14:45:37;13.73;;;11.30;;
4078;SDS011;2054;47.858;11.156;2023-05-16T14:48:04;14.38;;;11.65;;
4078;SDS011;2054;47.858;11.156;2023-05-16T14:50:32;14.32;;;10.73;;
4078;SDS011;2054;47.858;11.156;2023-05-16T14:52:59;15.68;;;11.38;;
4078;SDS011;2054;47.858;11.156;2023-05-16T14:55:27;22.58;;;11.65;;
4078;SDS011;2054;47.858;11.156;2023-05-16T14:57:54;15.45;;;12.32;;
4078;SDS011;2054;47.858;11.156;2023-05-16T15:00:23;16.55;;;11.55;;
4078;SDS011;2054;47.858;11.156;2023-05-16T15:02:52;20.40;;;12.95;;
4078;SDS011;2054;47.858;11.156;2023-05-16T15:05:19;14.57;;;11.38;;
4078;SDS011;2054;47.858;11.156;2023-05-16T15:07:46;14.57;;;10.82;;
4078;SDS011;2054;47.858;11.156;2023-05-16T15:10:13;19.08;;;12.90;;
4078;SDS011;2054;47.858;11.156;2023-05-16T15:12:41;16.38;;;12.32;;
4078;SDS011;2054;47.858;11.156;2023-05-16T15:15:09;14.43;;;11.27;;
4078;SDS011;2054;47.858;11.156;2023-05-16T15:17:36;15.55;;;10.85;;
4078;SDS011;2054;47.858;11.156;2023-05-16T15:20:07;17.27;;;12.98;;
4078;SDS011;2054;47.858;11.156;2023-05-16T15:22:35;19.23;;;13.65;;
4078;SDS011;2054;47.858;11.156;2023-05-16T15:25:02;17.02;;;13.80;;
4078;SDS011;2054;47.858;11.156;2023-05-16T15:27:32;17.75;;;11.93;;
4078;SDS011;2054;47.858;11.156;2023-05-16T15:29:59;15.00;;;11.07;;
4078;SDS011;2054;47.858;11.156;2023-05-16T15:32:26;14.38;;;11.20;;
4078;SDS011;2054;47.858;11.156;2023-05-16T15:34:53;13.85;;;10.95;;
4078;SDS011;2054;47.858;11.156;2023-05-16T15:37:22;13.80;;;10.70;;
4078;SDS011;2054;47.858;11.156;2023-05-16T15:39:50;15.75;;;12.50;;
4078;SDS011;2054;47.858;11.156;2023-05-16T15:42:17;15.85;;;12.05;;
4078;SDS011;2054;47.858;11.156;2023-05-16T15:44:45;13.50;;;10.45;;
4078;SDS011;2054;47.858;11.156;2023-05-16T15:47:12;16.25;;;9.80;;
4078;SDS011;2054;47.858;11.156;2023-05-16T15:49:40;11.73;;;8.48;;
4078;SDS011;2054;47.858;11.156;2023-05-16T15:52:07;13.63;;;9.98;;
4078;SDS011;2054;47.858;11.156;2023-05-16T15:54:36;14.48;;;9.73;;
4078;SDS011;2054;47.858;11.156;2023-05-16T15:57:03;11.50;;;9.43;;
4078;SDS011;2054;47.858;11.156;2023-05-16T15:59:31;14.27;;;11.05;;
4078;SDS011;2054;47.858;11.156;2023-05-16T16:01:58;12.35;;;9.45;;
4078;SDS011;2054;47.858;11.156;2023-05-16T16:04:29;14.38;;;11.07;;
4078;SDS011;2054;47.858;11.156;2023-05-16T16:06:56;13.55;;;10.48;;
4078;SDS011;2054;47.858;11.156;2023-05-16T16:09:24;14.80;;;10.63;;
4078;SDS011;2054;47.858;11.156;2023-05-16T16:11:52;13.95;;;10.30;;
4078;SDS011;2054;47.858;11.156;2023-05-16T16:14:21;12.10;;;10.05;;
4078;SDS011;2054;47.858;11.156;2023-05-16T16:16:48;13.20;;;10.80;;
4078;SDS011;2054;47.858;11.156;2023-05-16T16:19:15;14.25;;;10.50;;
4078;SDS011;2054;47.858;11.156;2023-05-16T16:21:43;14.70;;;11.00;;
4078;SDS011;2054;47.858;11.156;2023-05-16T16:24:10;12.85;;;10.48;;
4078;SDS011;2054;47.858;11.156;2023-05-16T16:26:38;13.05;;;10.52;;
4078;SDS011;2054;47.858;11.156;2023-05-16T16:29:07;12.02;;;9.98;;
4078;SDS011;2054;47.858;11.156;2023-05-16T16:31:34;11.40;;;9.90;;
4078;SDS011;2054;47.858;11.156;2023-05-16T16:34:02;16.55;;;11.30;;
4078;SDS011;2054;47.858;11.156;2023-05-16T16:36:29;14.23;;;11.32;;
4078;SDS011;2054;47.858;11.156;2023-05-16T16:38:57;13.50;;;10.95;;
4078;SDS011;2054;47.858;11.156;2023-05-16T16:41:24;14.90;;;11.45;;
4078;SDS011;2054;47.858;11.156;2023-05-16T16:43:52;13.90;;;11.05;;
4078;SDS011;2054;47.858;11.156;2023-05-16T16:46:21;15.77;;;11.95;;
4078;SDS011;2054;47.858;11.156;2023-05-16T16:48:48;16.20;;;12.73;;
4078;SDS011;2054;47.858;11.156;2023-05-16T16:51:16;14.95;;;11.57;;
4078;SDS011;2054;47.858;11.156;2023-05-16T16:53:44;15.70;;;13.05;;
4078;SDS011;2054;47.858;11.156;2023-05-16T16:56:11;16.55;;;13.70;;
4078;SDS011;2054;47.858;11.156;2023-05-16T16:58:39;18.23;;;13.48;;
4078;SDS011;2054;47.858;11.156;2023-05-16T17:01:06;16.65;;;13.77;;
4078;SDS011;2054;47.858;11.156;2023-05-16T17:03:35;18.30;;;13.25;;
4078;SDS011;2054;47.858;11.156;2023-05-16T17:06:02;17.95;;;13.52;;
4078;SDS011;2054;47.858;11.156;2023-05-16T17:08:29;17.77;;;13.40;;
4078;SDS011;2054;47.858;11.156;2023-05-16T17:10:57;14.13;;;11.45;;
4078;SDS011;2054;47.858;11.156;2023-05-16T17:13:29;17.85;;;13.95;;
4078;SDS011;2054;47.858;11.156;2023-05-16T17:15:58;16.90;;;12.73;;
4078;SDS011;2054;47.858;11.156;2023-05-16T17:18:25;17.73;;;13.77;;
4078;SDS011;2054;47.858;11.156;2023-05-16T17:20:54;18.08;;;12.75;;
4078;SDS011;2054;47.858;11.156;2023-05-16T17:23:21;15.23;;;12.27;;
4078;SDS011;2054;47.858;11.156;2023-05-16T17:25:48;16.77;;;12.30;;
4078;SDS011;2054;47.858;11.156;2023-05-16T17:28:16;15.57;;;11.57;;
4078;SDS011;2054;47.858;11.156;2023-05-16T17:30:43;16.00;;;12.65;;
4078;SDS011;2054;47.858;11.156;2023-05-16T17:33:11;17.27;;;13.00;;
4078;SDS011;2054;47.858;11.156;2023-05-16T17:35:38;19.10;;;15.25;;